createdAt,value
2018-07-15T00:01:41.077Z,99.90
2018-07-15T00:04:09.340Z,99.90
2018-07-15T00:06:37.733Z,99.90
2018-07-15T00:09:07.001Z,99.90
2018-07-15T00:11:35.321Z,99.90
2018-07-15T00:14:03.640Z,99.90
2018-07-15T00:16:31.928Z,99.90
2018-07-15T00:19:00.309Z,99.90
2018-07-15T00:21:28.621Z,99.90
2018-07-15T00:23:56.894Z,99.90
2018-07-15T00:26:25.138Z,99.90
2018-07-15T00:28:53.417Z,99.90
2018-07-15T00:31:22.126Z,99.90
2018-07-15T00:33:50.516Z,99.90
2018-07-15T00:36:18.838Z,99.90
2018-07-15T00:38:47.093Z,99.90
2018-07-15T00:43:43.465Z,99.90
2018-07-15T00:46:11.738Z,99.90
2018-07-15T00:48:40.000Z,99.90
2018-07-15T00:51:08.269Z,99.90
2018-07-15T00:53:36.557Z,99.90
2018-07-15T00:56:04.820Z,99.90
2018-07-15T00:58:33.096Z,99.90
2018-07-15T01:01:02.033Z,99.90
2018-07-15T01:03:31.153Z,99.90
2018-07-15T01:05:59.505Z,99.90
2018-07-15T01:08:27.816Z,99.90
2018-07-15T01:10:56.133Z,99.90
2018-07-15T01:13:24.676Z,99.90
2018-07-15T01:15:52.957Z,99.90
2018-07-15T01:18:21.235Z,99.90
2018-07-15T01:20:49.612Z,99.90
2018-07-15T01:23:17.877Z,99.90
2018-07-15T01:25:46.134Z,99.90
2018-07-15T01:28:14.556Z,99.90
2018-07-15T01:30:42.813Z,99.90
2018-07-15T01:33:12.025Z,99.90
2018-07-15T01:35:40.317Z,99.90
2018-07-15T01:38:08.612Z,99.90
2018-07-15T01:40:36.928Z,99.90
2018-07-15T01:43:05.480Z,99.90
2018-07-15T01:45:33.726Z,99.90
2018-07-15T01:48:01.992Z,99.90
2018-07-15T01:50:30.278Z,99.90
2018-07-15T01:52:58.541Z,99.90
2018-07-15T01:55:26.821Z,99.90
2018-07-15T01:57:55.394Z,99.90
2018-07-15T02:00:23.704Z,99.90
2018-07-15T02:02:51.983Z,99.90
2018-07-15T02:05:20.464Z,99.90
2018-07-15T02:07:48.720Z,99.90
2018-07-15T02:10:16.960Z,99.90
2018-07-15T02:12:45.404Z,99.90
2018-07-15T02:15:13.708Z,99.90
2018-07-15T02:17:41.967Z,99.90
2018-07-15T02:20:10.404Z,99.90
2018-07-15T02:22:38.684Z,99.90
2018-07-15T02:25:07.218Z,99.90
2018-07-15T02:27:35.677Z,99.90
2018-07-15T02:30:04.006Z,99.90
2018-07-15T02:32:32.273Z,99.90
2018-07-15T02:35:01.377Z,99.90
2018-07-15T02:37:29.650Z,99.90
2018-07-15T02:39:57.908Z,99.90
2018-07-15T02:42:26.229Z,99.90
2018-07-15T02:44:54.541Z,99.90
2018-07-15T02:47:22.790Z,99.90
2018-07-15T02:49:51.116Z,99.90
2018-07-15T02:52:19.396Z,99.90
2018-07-15T02:54:47.670Z,99.90
2018-07-15T02:57:15.953Z,99.90
2018-07-15T02:59:44.224Z,99.90
2018-07-15T03:02:12.477Z,99.90
2018-07-15T03:04:40.863Z,99.90
2018-07-15T03:07:09.143Z,99.90
2018-07-15T03:09:37.411Z,99.90
2018-07-15T03:12:05.707Z,99.90
2018-07-15T03:14:33.990Z,99.90
2018-07-15T03:17:02.287Z,99.90
2018-07-15T03:19:30.585Z,99.90
2018-07-15T03:21:58.861Z,99.90
2018-07-15T03:24:27.112Z,99.90
2018-07-15T03:26:55.466Z,99.90
2018-07-15T03:29:23.712Z,99.90
2018-07-15T03:31:51.996Z,99.90
2018-07-15T03:34:20.458Z,99.90
2018-07-15T03:36:48.790Z,99.90
2018-07-15T03:39:17.112Z,99.90
2018-07-15T03:41:45.845Z,99.90
2018-07-15T03:44:14.120Z,99.90
2018-07-15T03:46:42.380Z,99.90
2018-07-15T03:49:10.658Z,99.90
2018-07-15T03:51:38.937Z,99.90
2018-07-15T03:54:07.196Z,99.90
2018-07-15T03:56:35.625Z,99.90
2018-07-15T03:59:03.864Z,99.90
2018-07-15T04:01:32.177Z,99.90
2018-07-15T04:04:00.463Z,99.90
2018-07-15T04:06:28.725Z,99.90
2018-07-15T04:08:57.106Z,99.90
2018-07-15T04:11:25.356Z,99.90
2018-07-15T04:13:53.628Z,99.90
2018-07-15T04:16:21.900Z,99.90
2018-07-15T04:18:50.469Z,99.90
2018-07-15T04:21:18.736Z,99.90
2018-07-15T04:23:47.018Z,99.90
2018-07-15T04:26:15.321Z,99.90
2018-07-15T04:28:43.589Z,99.90
2018-07-15T04:31:11.884Z,99.90
2018-07-15T04:33:40.331Z,99.90
2018-07-15T04:36:08.592Z,99.90
2018-07-15T04:38:36.941Z,99.90
2018-07-15T04:41:05.238Z,99.90
2018-07-15T04:43:33.518Z,99.90
2018-07-15T04:46:01.817Z,99.90
2018-07-15T04:48:30.129Z,99.90
2018-07-15T04:50:58.384Z,99.90
2018-07-15T04:53:26.629Z,99.90
2018-07-15T04:55:54.909Z,99.90
2018-07-15T04:58:23.188Z,99.90
2018-07-15T05:00:51.468Z,99.90
2018-07-15T05:03:19.812Z,99.90
2018-07-15T05:05:48.070Z,99.90
2018-07-15T05:10:44.389Z,99.90
2018-07-15T05:13:12.658Z,99.90
2018-07-15T05:15:40.929Z,99.90
2018-07-15T05:18:09.570Z,99.90
2018-07-15T05:20:37.949Z,99.90
2018-07-15T05:23:06.226Z,99.90
2018-07-15T05:25:34.528Z,99.90
2018-07-15T05:28:02.800Z,99.90
2018-07-15T05:30:31.188Z,99.90
2018-07-15T05:33:00.913Z,99.90
2018-07-15T05:35:29.197Z,99.90
2018-07-15T05:37:57.472Z,99.90
2018-07-15T05:40:26.077Z,99.90
2018-07-15T05:42:54.342Z,99.90
2018-07-15T05:45:22.614Z,99.90
2018-07-15T05:47:50.950Z,99.90
2018-07-15T05:50:19.268Z,99.90
2018-07-15T05:52:47.531Z,99.90
2018-07-15T05:55:16.004Z,99.90
2018-07-15T05:57:44.277Z,99.90
2018-07-15T06:00:12.530Z,99.90
2018-07-15T06:02:40.836Z,99.90
2018-07-15T06:07:38.152Z,99.90
2018-07-15T06:10:06.760Z,99.90
2018-07-15T06:12:35.124Z,99.90
2018-07-15T06:15:03.403Z,99.30
2018-07-15T06:17:31.953Z,98.50
2018-07-15T06:20:00.229Z,98.60
2018-07-15T06:22:28.507Z,98.30
2018-07-15T06:24:56.808Z,98.30
2018-07-15T06:27:25.083Z,99.10
2018-07-15T06:29:53.363Z,98.90
2018-07-15T06:32:21.697Z,99.50
2018-07-15T06:34:49.969Z,99.70
2018-07-15T06:37:18.259Z,99.90
2018-07-15T06:39:46.701Z,99.90
2018-07-15T06:42:15.568Z,99.90
2018-07-15T06:44:43.850Z,99.20
2018-07-15T06:49:40.361Z,99.00
2018-07-15T06:52:08.671Z,98.70
2018-07-15T06:57:05.654Z,98.80
2018-07-15T06:59:33.952Z,98.60
2018-07-15T07:02:02.225Z,98.20
2018-07-15T07:04:30.505Z,98.30
2018-07-15T07:06:58.740Z,97.80
2018-07-15T07:09:27.308Z,97.70
2018-07-15T07:11:55.545Z,97.70
2018-07-15T07:14:23.792Z,97.10
2018-07-15T07:16:52.385Z,96.90
2018-07-15T07:19:20.650Z,96.70
2018-07-15T07:21:48.888Z,96.30
2018-07-15T07:24:17.197Z,96.30
2018-07-15T07:26:45.513Z,96.10
2018-07-15T07:29:13.745Z,96.00
2018-07-15T07:31:42.070Z,95.00
2018-07-15T07:34:10.354Z,95.20
2018-07-15T07:36:38.713Z,94.80
2018-07-15T07:39:07.628Z,95.20
2018-07-15T07:41:36.132Z,95.60
2018-07-15T07:44:05.214Z,95.00
2018-07-15T07:46:33.565Z,94.90
2018-07-15T07:49:01.852Z,94.00
2018-07-15T07:51:30.146Z,94.40
2018-07-15T07:53:58.728Z,94.00
2018-07-15T07:56:27.008Z,93.60
2018-07-15T07:58:55.253Z,93.30
2018-07-15T08:01:23.701Z,93.00
2018-07-15T08:03:51.961Z,92.70
2018-07-15T08:06:20.216Z,92.70
2018-07-15T08:08:48.485Z,92.50
2018-07-15T08:11:16.736Z,92.50
2018-07-15T08:13:45.005Z,92.80
2018-07-15T08:16:13.456Z,92.10
2018-07-15T08:18:41.726Z,91.80
2018-07-15T08:21:10.069Z,91.80
2018-07-15T08:23:38.658Z,91.60
2018-07-15T08:26:07.090Z,91.30
2018-07-15T08:31:11.752Z,91.00
2018-07-15T08:33:40.273Z,90.80
2018-07-15T08:36:09.313Z,90.80
2018-07-15T08:38:38.218Z,90.90
2018-07-15T08:41:06.645Z,90.60
2018-07-15T08:43:34.925Z,90.10
2018-07-15T08:46:04.563Z,90.10
2018-07-15T08:48:33.120Z,90.50
2018-07-15T08:51:01.434Z,90.50
2018-07-15T08:53:29.737Z,90.10
2018-07-15T08:55:58.049Z,90.30
2018-07-15T08:58:26.305Z,90.60
2018-07-15T09:00:54.682Z,90.20
2018-07-15T09:03:22.978Z,88.40
2018-07-15T09:05:51.226Z,89.20
2018-07-15T09:08:19.907Z,86.50
2018-07-15T09:10:48.172Z,86.10
2018-07-15T09:13:16.432Z,85.60
2018-07-15T09:18:12.781Z,86.50
2018-07-15T09:20:41.114Z,85.70
2018-07-15T09:23:09.393Z,84.80
2018-07-15T09:25:37.641Z,86.60
2018-07-15T09:28:06.126Z,85.10
2018-07-15T09:30:34.405Z,85.50
2018-07-15T09:33:02.657Z,83.50
2018-07-15T09:35:30.945Z,83.50
2018-07-15T09:40:27.237Z,83.30
2018-07-15T09:42:55.528Z,82.60
2018-07-15T09:45:23.826Z,81.30
2018-07-15T09:47:52.160Z,81.00
2018-07-15T09:50:20.405Z,83.50
2018-07-15T09:52:48.941Z,81.20
2018-07-15T09:55:17.181Z,82.50
2018-07-15T09:57:45.424Z,78.60
2018-07-15T10:00:19.129Z,77.50
2018-07-15T10:02:47.376Z,77.40
2018-07-15T10:05:15.628Z,79.70
2018-07-15T10:07:43.893Z,79.50
2018-07-15T10:10:12.149Z,78.30
2018-07-15T10:12:40.444Z,78.00
2018-07-15T10:15:09.224Z,78.40
2018-07-15T10:17:37.703Z,79.50
2018-07-15T10:20:06.279Z,78.20
2018-07-15T10:22:34.681Z,78.40
2018-07-15T10:25:02.977Z,76.90
2018-07-15T10:27:31.233Z,78.20
2018-07-15T10:29:59.521Z,77.10
2018-07-15T10:32:27.886Z,77.90
2018-07-15T10:34:56.377Z,77.90
2018-07-15T10:37:24.680Z,79.00
2018-07-15T10:39:52.951Z,77.70
2018-07-15T10:42:21.233Z,75.30
2018-07-15T10:44:49.509Z,75.60
2018-07-15T10:47:17.789Z,76.30
2018-07-15T10:49:46.212Z,75.60
2018-07-15T10:52:14.501Z,77.00
2018-07-15T10:54:42.819Z,74.30
2018-07-15T10:57:11.097Z,76.00
2018-07-15T10:59:39.421Z,76.10
2018-07-15T11:02:07.720Z,75.40
2018-07-15T11:04:35.988Z,75.20
2018-07-15T11:07:04.274Z,74.80
2018-07-15T11:09:32.522Z,71.10
2018-07-15T11:12:00.765Z,71.10
2018-07-15T11:14:29.126Z,71.30
2018-07-15T11:16:57.365Z,70.70
2018-07-15T11:19:25.622Z,67.80
2018-07-15T11:24:22.070Z,69.80
2018-07-15T11:26:50.353Z,68.80
2018-07-15T11:29:18.829Z,70.40
2018-07-15T11:31:47.160Z,75.20
2018-07-15T11:34:15.430Z,75.00
2018-07-15T11:36:43.781Z,71.20
2018-07-15T11:39:12.045Z,75.70
2018-07-15T11:41:40.340Z,71.00
2018-07-15T11:44:09.024Z,69.50
2018-07-15T11:46:37.294Z,72.00
2018-07-15T11:49:05.575Z,71.30
2018-07-15T11:51:34.245Z,69.80
2018-07-15T11:54:02.541Z,71.00
2018-07-15T11:56:30.845Z,67.30
2018-07-15T11:58:59.140Z,71.70
2018-07-15T12:01:27.406Z,66.10
2018-07-15T12:03:55.665Z,65.50
2018-07-15T12:06:24.000Z,65.00
2018-07-15T12:08:52.270Z,64.20
2018-07-15T12:13:48.673Z,66.80
2018-07-15T12:16:17.005Z,59.50
2018-07-15T12:18:45.317Z,62.60
2018-07-15T12:21:13.608Z,63.30
2018-07-15T12:23:41.937Z,61.80
2018-07-15T12:28:38.499Z,62.10
2018-07-15T12:31:06.829Z,65.70
2018-07-15T12:33:35.077Z,60.00
2018-07-15T12:36:03.781Z,58.60
2018-07-15T12:38:32.041Z,59.00
2018-07-15T12:41:00.289Z,60.10
2018-07-15T12:45:56.656Z,60.70
2018-07-15T12:48:24.913Z,63.00
2018-07-15T12:50:53.524Z,63.60
2018-07-15T12:53:22.329Z,59.60
2018-07-15T12:55:50.625Z,65.10
2018-07-15T12:58:19.250Z,63.60
2018-07-15T13:00:47.508Z,60.70
2018-07-15T13:03:15.809Z,61.40
2018-07-15T13:05:44.264Z,60.60
2018-07-15T13:08:13.563Z,60.10
2018-07-15T13:10:41.897Z,61.00
2018-07-15T13:13:10.685Z,58.70
2018-07-15T13:15:39.833Z,58.40
2018-07-15T13:18:08.107Z,59.10
2018-07-15T13:20:36.438Z,57.70
2018-07-15T13:23:04.694Z,58.00
2018-07-15T13:25:32.964Z,58.90
2018-07-15T13:28:01.685Z,61.40
2018-07-15T13:30:29.954Z,59.90
2018-07-15T13:32:58.298Z,57.80
2018-07-15T13:35:26.780Z,58.10
2018-07-15T13:37:55.097Z,63.00
2018-07-15T13:40:23.453Z,58.00
2018-07-15T13:42:52.185Z,58.50
2018-07-15T13:45:20.681Z,58.50
2018-07-15T13:47:48.945Z,63.40
2018-07-15T13:50:17.600Z,57.70
2018-07-15T13:52:46.089Z,57.20
2018-07-15T13:55:14.769Z,57.20
2018-07-15T13:57:43.044Z,57.60
2018-07-15T14:00:11.385Z,56.70
2018-07-15T14:02:39.647Z,54.60
2018-07-15T14:05:08.480Z,57.50
2018-07-15T14:07:36.753Z,53.70
2018-07-15T14:10:05.777Z,55.80
2018-07-15T14:12:34.229Z,54.70
2018-07-15T14:15:02.586Z,54.60
2018-07-15T14:17:30.869Z,58.30
2018-07-15T14:19:59.673Z,54.10
2018-07-15T14:22:28.017Z,53.90
2018-07-15T14:24:56.469Z,53.20
2018-07-15T14:27:25.010Z,54.50
2018-07-15T14:32:21.397Z,53.50
2018-07-15T14:34:49.700Z,52.60
2018-07-15T14:37:18.019Z,54.00
2018-07-15T14:39:46.306Z,54.00
2018-07-15T14:42:14.649Z,54.60
2018-07-15T14:44:43.005Z,55.10
2018-07-15T14:47:11.276Z,54.80
2018-07-15T14:49:39.933Z,54.40
2018-07-15T14:52:08.273Z,54.60
2018-07-15T14:54:36.598Z,52.80
2018-07-15T14:57:05.313Z,53.20
2018-07-15T14:59:33.583Z,53.50
2018-07-15T15:02:01.906Z,52.20
2018-07-15T15:04:30.337Z,54.90
2018-07-15T15:06:58.683Z,54.70
2018-07-15T15:09:26.961Z,52.30
2018-07-15T15:11:55.336Z,52.00
2018-07-15T15:14:23.689Z,54.30
2018-07-15T15:16:52.057Z,52.80
2018-07-15T15:19:20.477Z,52.50
2018-07-15T15:21:48.795Z,51.40
2018-07-15T15:24:17.105Z,56.80
2018-07-15T15:26:45.670Z,55.40
2018-07-15T15:29:14.049Z,54.70
2018-07-15T15:31:42.326Z,53.50
2018-07-15T15:34:10.997Z,52.70
2018-07-15T15:36:39.264Z,52.60
2018-07-15T15:39:07.592Z,54.30
2018-07-15T15:41:36.041Z,54.30
2018-07-15T15:44:04.304Z,54.40
2018-07-15T15:46:32.565Z,53.40
2018-07-15T15:49:01.376Z,55.10
2018-07-15T15:51:29.731Z,55.00
2018-07-15T15:53:58.066Z,56.10
2018-07-15T15:56:26.677Z,56.00
2018-07-15T15:58:55.714Z,55.20
2018-07-15T16:01:23.997Z,55.30
2018-07-15T16:03:52.285Z,54.90
2018-07-15T16:06:20.599Z,53.60
2018-07-15T16:08:48.960Z,53.30
2018-07-15T16:11:17.453Z,54.00
2018-07-15T16:13:45.789Z,53.30
2018-07-15T16:16:14.373Z,53.50
2018-07-15T16:18:42.721Z,53.60
2018-07-15T16:21:10.982Z,52.10
2018-07-15T16:23:39.242Z,53.70
2018-07-15T16:26:07.648Z,54.60
2018-07-15T16:28:35.976Z,54.70
2018-07-15T16:31:04.224Z,55.00
2018-07-15T16:33:32.521Z,55.00
2018-07-15T16:36:00.792Z,55.10
2018-07-15T16:38:29.088Z,56.40
2018-07-15T16:40:57.937Z,57.90
2018-07-15T16:43:26.204Z,60.50
2018-07-15T16:45:54.517Z,57.90
2018-07-15T16:48:23.058Z,59.20
2018-07-15T16:50:51.369Z,58.90
2018-07-15T16:53:19.672Z,59.00
2018-07-15T16:55:48.542Z,59.10
2018-07-15T16:58:17.187Z,59.10
2018-07-15T17:00:45.788Z,58.70
2018-07-15T17:03:14.172Z,61.20
2018-07-15T17:05:42.590Z,58.70
2018-07-15T17:08:10.836Z,58.70
2018-07-15T17:10:39.217Z,60.70
2018-07-15T17:13:07.758Z,59.60
2018-07-15T17:15:36.029Z,61.10
2018-07-15T17:18:04.313Z,59.60
2018-07-15T17:20:32.556Z,60.40
2018-07-15T17:23:00.813Z,60.00
2018-07-15T17:27:57.128Z,62.30
2018-07-15T17:30:25.377Z,62.10
2018-07-15T17:32:53.644Z,61.80
2018-07-15T17:37:49.908Z,61.50
2018-07-15T17:40:18.184Z,60.70
2018-07-15T17:42:46.427Z,62.70
2018-07-15T17:45:14.725Z,61.50
2018-07-15T17:47:43.011Z,61.50
2018-07-15T17:50:11.305Z,63.20
2018-07-15T17:52:39.582Z,62.80
2018-07-15T17:55:07.853Z,64.20
2018-07-15T17:57:36.130Z,64.20
2018-07-15T18:00:04.411Z,62.70
2018-07-15T18:02:32.764Z,62.60
2018-07-15T18:05:01.099Z,62.20
2018-07-15T18:07:29.290Z,62.70
2018-07-15T18:09:57.725Z,64.00
2018-07-15T18:12:25.984Z,64.80
2018-07-15T18:14:54.285Z,63.50
2018-07-15T18:17:22.574Z,63.20
2018-07-15T18:19:50.912Z,64.20
2018-07-15T18:22:19.183Z,64.70
2018-07-15T18:24:47.425Z,65.20
2018-07-15T18:27:15.711Z,65.30
2018-07-15T18:29:43.941Z,65.10
2018-07-15T18:32:12.213Z,64.60
2018-07-15T18:34:40.461Z,65.40
2018-07-15T18:37:08.697Z,65.40
2018-07-15T18:39:37.030Z,64.60
2018-07-15T18:42:05.306Z,66.50
2018-07-15T18:44:33.661Z,65.70
2018-07-15T18:47:02.179Z,65.80
2018-07-15T18:49:30.432Z,68.10
2018-07-15T18:51:58.710Z,66.10
2018-07-15T18:56:54.989Z,67.10
2018-07-15T18:59:23.237Z,66.60
2018-07-15T19:01:51.552Z,67.90
2018-07-15T19:04:19.932Z,67.30
2018-07-15T19:06:48.217Z,66.90
2018-07-15T19:09:16.513Z,68.80
2018-07-15T19:11:44.769Z,68.60
2018-07-15T19:14:13.029Z,68.30
2018-07-15T19:16:41.445Z,69.30
2018-07-15T19:19:09.757Z,70.70
2018-07-15T19:21:38.017Z,71.30
2018-07-15T19:24:06.953Z,72.30
2018-07-15T19:26:35.279Z,73.60
2018-07-15T19:29:03.601Z,74.90
2018-07-15T19:31:32.096Z,74.50
2018-07-15T19:34:00.542Z,72.80
2018-07-15T19:36:29.956Z,72.60
2018-07-15T19:38:59.367Z,75.10
2018-07-15T19:41:28.847Z,75.60
2018-07-15T19:43:58.277Z,76.20
2018-07-15T19:46:27.658Z,74.10
2018-07-15T19:48:56.968Z,78.20
2018-07-15T19:53:55.283Z,81.70
2018-07-15T19:56:24.504Z,80.70
2018-07-15T19:58:54.061Z,79.70
2018-07-15T20:01:23.484Z,74.00
2018-07-15T20:03:52.863Z,77.00
2018-07-15T20:06:22.534Z,79.00
2018-07-15T20:08:52.520Z,79.50
2018-07-15T20:11:21.977Z,79.80
2018-07-15T20:13:51.409Z,80.70
2018-07-15T20:16:21.160Z,83.70
2018-07-15T20:18:50.642Z,82.10
2018-07-15T20:21:22.905Z,82.50
2018-07-15T20:23:56.432Z,83.70
2018-07-15T20:26:26.841Z,84.40
2018-07-15T20:28:57.196Z,83.80
2018-07-15T20:31:26.496Z,85.30
2018-07-15T20:33:55.868Z,87.00
2018-07-15T20:36:25.491Z,87.60
2018-07-15T20:38:54.744Z,85.80
2018-07-15T20:41:24.043Z,85.40
2018-07-15T20:46:22.462Z,88.90
2018-07-15T20:48:50.796Z,89.00
2018-07-15T20:51:19.145Z,88.60
2018-07-15T20:53:47.413Z,90.10
2018-07-15T20:56:15.781Z,89.70
2018-07-15T20:58:44.034Z,90.20
2018-07-15T21:01:12.325Z,90.70
2018-07-15T21:03:40.605Z,90.90
2018-07-15T21:06:08.903Z,90.60
2018-07-15T21:08:37.776Z,90.20
2018-07-15T21:11:06.042Z,90.90
2018-07-15T21:13:34.645Z,90.20
2018-07-15T21:16:02.909Z,90.00
2018-07-15T21:18:31.157Z,90.90
2018-07-15T21:20:59.437Z,91.10
2018-07-15T21:23:27.704Z,89.90
2018-07-15T21:25:55.965Z,90.60
2018-07-15T21:28:24.253Z,90.00
2018-07-15T21:30:52.553Z,89.30
2018-07-15T21:33:20.845Z,89.80
2018-07-15T21:38:17.238Z,90.30
2018-07-15T21:40:45.505Z,91.50
2018-07-15T21:43:13.821Z,91.70
2018-07-15T21:45:42.077Z,91.50
2018-07-15T21:48:10.337Z,91.90
2018-07-15T21:50:38.613Z,91.90
2018-07-15T21:53:06.904Z,92.30
2018-07-15T21:55:35.161Z,91.80
2018-07-15T21:58:05.174Z,91.50
2018-07-15T22:00:33.460Z,92.20
2018-07-15T22:03:01.805Z,92.00
2018-07-15T22:05:30.054Z,92.40
2018-07-15T22:08:09.565Z,92.50
2018-07-15T22:10:42.168Z,92.70
2018-07-15T22:13:10.402Z,92.40
2018-07-15T22:15:38.729Z,93.10
2018-07-15T22:18:07.037Z,92.80
2018-07-15T22:23:03.402Z,93.10
2018-07-15T22:25:31.941Z,93.40
2018-07-15T22:28:00.510Z,93.70
2018-07-15T22:30:28.765Z,93.90
2018-07-15T22:32:57.281Z,93.60
2018-07-15T22:35:25.544Z,94.30
2018-07-15T22:37:53.826Z,93.60
2018-07-15T22:40:22.290Z,93.80
2018-07-15T22:42:50.556Z,93.40
2018-07-15T22:45:18.820Z,93.50
2018-07-15T22:47:47.116Z,93.30
2018-07-15T22:50:15.365Z,93.70
2018-07-15T22:52:43.629Z,93.60
2018-07-15T22:55:12.231Z,93.60
2018-07-15T22:57:40.493Z,93.70
2018-07-15T23:00:08.990Z,93.20
2018-07-15T23:02:37.476Z,93.50
2018-07-15T23:05:43.282Z,93.30
2018-07-15T23:08:11.890Z,93.10
2018-07-15T23:10:40.674Z,93.40
2018-07-15T23:13:09.841Z,93.60
2018-07-15T23:15:38.533Z,93.60
2018-07-15T23:18:06.858Z,93.70
2018-07-15T23:23:04.713Z,94.40
2018-07-15T23:25:33.276Z,94.10
2018-07-15T23:28:02.128Z,94.30
2018-07-15T23:30:31.309Z,94.90
2018-07-15T23:32:59.940Z,95.10
2018-07-15T23:35:28.207Z,95.00
2018-07-15T23:37:56.519Z,95.00
2018-07-15T23:40:24.897Z,95.90
2018-07-15T23:42:53.673Z,95.30
2018-07-15T23:45:22.533Z,95.80
2018-07-15T23:47:50.776Z,95.70
2018-07-15T23:50:19.064Z,94.70
2018-07-15T23:52:50.232Z,94.60
2018-07-15T23:55:18.494Z,95.20
2018-07-15T23:57:46.841Z,94.90
